Time;durP1;ratioP1;P1;durP2;ratioP2;P2;SDS_P1;SDS_P2;PMS_P1;PMS_P2;Temp;Humidity;BMP_temperature;BMP_pressure;BME280_temperature;BME280_humidity;BME280_pressure;Samples;Min_cycle;Max_cycle;Signal;HPM_P1;HPM_P2
2022/05/20 00:00:11;;;;;;;15.90;13.23;;;14.10;99.90;;;;;;5028293;28;20073;-95
2022/05/20 00:02:37;;;;;;;17.25;13.35;;;14.10;99.90;;;;;;4994402;28;20073;-93
2022/05/20 00:05:03;;;;;;;16.15;13.10;;;14.00;99.90;;;;;;4995184;28;20065;-92
2022/05/20 00:07:29;;;;;;;16.20;12.95;;;14.00;99.90;;;;;;5011729;28;20099;-96
2022/05/20 00:09:55;;;;;;;15.10;13.40;;;14.00;99.90;;;;;;5012989;28;20204;-95
2022/05/20 00:12:21;;;;;;;15.75;13.98;;;14.00;99.90;;;;;;5046882;28;20042;-95
2022/05/20 00:14:46;;;;;;;16.17;14.23;;;14.00;99.90;;;;;;4995275;28;20046;-93
2022/05/20 00:17:12;;;;;;;15.60;13.65;;;14.00;99.90;;;;;;5029366;28;20046;-93
2022/05/20 00:19:38;;;;;;;15.68;14.05;;;13.90;99.90;;;;;;5010713;28;20148;-95
2022/05/20 00:22:06;;;;;;;17.23;14.63;;;13.90;99.90;;;;;;5011879;28;20486;-93
2022/05/20 00:24:32;;;;;;;16.98;15.18;;;13.90;99.90;;;;;;5028254;28;20102;-94
2022/05/20 00:26:58;;;;;;;17.40;15.25;;;13.90;99.90;;;;;;5012959;28;20050;-93
2022/05/20 00:29:24;;;;;;;18.00;14.52;;;13.90;99.90;;;;;;5011209;28;20041;-94
2022/05/20 00:31:49;;;;;;;17.98;15.43;;;14.00;99.90;;;;;;5010669;28;20053;-96
2022/05/20 00:34:16;;;;;;;17.77;15.88;;;13.90;99.90;;;;;;5011209;28;20452;-94
2022/05/20 00:36:41;;;;;;;18.17;15.93;;;13.90;99.90;;;;;;5027011;28;20106;-95
2022/05/20 00:39:07;;;;;;;18.63;16.70;;;14.00;99.90;;;;;;5028128;28;20077;-92
2022/05/20 00:41:33;;;;;;;17.50;15.70;;;14.00;99.90;;;;;;5043706;28;20038;-93
2022/05/20 00:43:58;;;;;;;18.08;15.95;;;14.00;99.90;;;;;;5027550;28;20041;-92
2022/05/20 00:46:27;;;;;;;17.85;15.98;;;14.00;99.90;;;;;;5010020;28;20405;-96
2022/05/20 00:48:57;;;;;;;19.08;16.60;;;14.00;99.90;;;;;;5011163;28;20551;-93
2022/05/20 00:51:28;;;;;;;18.10;16.30;;;14.00;99.90;;;;;;4994394;28;20136;-94
2022/05/20 00:53:58;;;;;;;;;;;13.90;99.90;;;;;;5011930;28;20049;-95
2022/05/20 00:56:30;;;;;;;18.35;16.23;;;13.80;99.90;;;;;;4995702;28;19921;-93
2022/05/20 00:58:58;;;;;;;19.10;16.95;;;13.80;99.90;;;;;;5011111;28;20137;-94
2022/05/20 01:01:24;;;;;;;18.25;16.35;;;13.90;99.90;;;;;;5010838;28;20097;-93
2022/05/20 01:03:52;;;;;;;17.98;15.88;;;13.90;99.90;;;;;;5010476;28;20053;-94
2022/05/20 01:06:18;;;;;;;19.58;16.92;;;13.90;99.90;;;;;;5009231;28;20417;-94
2022/05/20 01:08:44;;;;;;;18.63;16.63;;;13.90;99.90;;;;;;5009364;28;20041;-95
2022/05/20 01:11:09;;;;;;;18.98;16.92;;;13.90;99.90;;;;;;5011238;28;20046;-96
2022/05/20 01:13:36;;;;;;;18.60;16.38;;;13.90;99.90;;;;;;5042353;28;20061;-93
2022/05/20 01:16:08;;;;;;;17.83;15.80;;;13.90;99.90;;;;;;4993523;28;20042;-96
2022/05/20 01:18:36;;;;;;;19.30;16.77;;;13.90;99.90;;;;;;5008954;28;20365;-93
2022/05/20 01:21:03;;;;;;;18.08;16.17;;;13.90;99.90;;;;;;4992715;28;20390;-94
2022/05/20 01:23:29;;;;;;;17.88;15.85;;;13.90;99.90;;;;;;5011026;28;20042;-96
2022/05/20 01:25:57;;;;;;;18.95;16.95;;;13.90;99.90;;;;;;5010142;28;20087;-95
2022/05/20 01:28:26;;;;;;;19.30;16.33;;;13.90;99.90;;;;;;5008437;28;20461;-91
2022/05/20 01:31:02;;;;;;;16.23;14.45;;;13.90;99.90;;;;;;4992469;28;20104;-93
2022/05/20 01:33:34;;;;;;;14.48;12.95;;;13.90;99.90;;;;;;5041535;28;20046;-95
2022/05/20 01:36:03;;;;;;;16.45;13.07;;;13.80;99.90;;;;;;5008674;28;20056;-92
2022/05/20 01:38:30;;;;;;;15.43;13.68;;;13.80;99.90;;;;;;5009533;28;20046;-95
2022/05/20 01:41:04;;;;;;;14.60;13.05;;;13.80;99.90;;;;;;5008445;28;20056;-95
2022/05/20 01:43:41;;;;;;;14.23;12.18;;;13.80;99.90;;;;;;5010606;28;20046;-96
2022/05/20 01:46:31;;;;;;;14.82;11.68;;;13.80;99.90;;;;;;5025310;28;20437;-96
2022/05/20 01:48:59;;;;;;;14.20;12.32;;;13.80;99.90;;;;;;5009401;28;20042;-94
2022/05/20 01:51:32;;;;;;;15.50;11.10;;;13.80;99.90;;;;;;5025960;28;20045;-96
2022/05/20 01:54:03;;;;;;;14.32;11.50;;;13.70;99.90;;;;;;4992830;28;20045;-94
2022/05/20 01:56:46;;;;;;;14.73;11.73;;;13.70;99.90;;;;;;5008631;28;20045;-92
2022/05/20 01:59:22;;;;;;;13.70;11.52;;;13.70;99.90;;;;;;4992481;28;20065;-93
2022/05/20 02:02:13;;;;;;;15.68;11.90;;;13.70;99.90;;;;;;5008528;28;20046;-95
2022/05/20 02:04:44;;;;;;;15.80;12.13;;;13.60;99.90;;;;;;5008092;28;20053;-94
2022/05/20 02:07:13;;;;;;;;;;;13.60;99.90;;;;;;4993895;28;20187;-95
2022/05/20 02:09:56;;;;;;;15.45;12.13;;;13.50;99.90;;;;;;5010881;28;19921;-96
2022/05/20 02:12:26;;;;;;;16.50;13.05;;;13.50;99.90;;;;;;5010172;28;20045;-95
2022/05/20 02:15:06;;;;;;;16.17;12.73;;;13.60;99.90;;;;;;5008203;28;20068;-96
2022/05/20 02:17:37;;;;;;;16.27;12.13;;;13.60;99.90;;;;;;5010137;28;20410;-95
2022/05/20 02:20:19;;;;;;;15.93;12.23;;;13.60;99.90;;;;;;5008925;28;20044;-93
2022/05/20 02:22:49;;;;;;;15.77;13.05;;;13.60;99.90;;;;;;4991027;28;20050;-94
2022/05/20 02:25:22;;;;;;;15.30;12.68;;;13.60;99.90;;;;;;5007467;28;20042;-91
2022/05/20 02:27:53;;;;;;;15.70;11.98;;;13.60;99.90;;;;;;5007072;28;20133;-93
2022/05/20 02:30:25;;;;;;;15.52;12.23;;;13.60;99.90;;;;;;4991327;28;20042;-93
2022/05/20 02:32:57;;;;;;;17.48;12.27;;;13.60;99.90;;;;;;5006898;28;20137;-92
2022/05/20 02:35:23;;;;;;;15.95;11.43;;;13.70;99.90;;;;;;4991326;28;20422;-94
2022/05/20 02:37:49;;;;;;;15.38;12.32;;;13.70;99.90;;;;;;5007331;28;20042;-93
2022/05/20 02:40:17;;;;;;;17.20;12.13;;;13.70;99.90;;;;;;5040465;28;20052;-94
2022/05/20 02:42:43;;;;;;;16.73;11.88;;;13.70;99.90;;;;;;5008319;28;20107;-95
2022/05/20 02:45:09;;;;;;;16.52;12.13;;;13.70;99.90;;;;;;5040725;28;20452;-93
2022/05/20 02:47:37;;;;;;;14.68;11.60;;;13.70;99.90;;;;;;5006359;28;20054;-94
2022/05/20 02:50:10;;;;;;;15.68;11.57;;;13.70;99.90;;;;;;5007580;28;20081;-96
2022/05/20 02:52:36;;;;;;;13.85;11.88;;;13.70;99.90;;;;;;5024394;28;20065;-93
2022/05/20 02:55:03;;;;;;;16.05;12.32;;;13.50;99.90;;;;;;4991014;28;20081;-93
2022/05/20 02:57:28;;;;;;;15.43;11.98;;;13.60;99.90;;;;;;4990581;28;20084;-93
2022/05/20 03:05:23;;;;;;;17.02;12.25;;;13.60;99.90;;;;;;5006962;28;20057;-94
2022/05/20 03:07:48;;;;;;;16.35;12.80;;;13.60;99.90;;;;;;5039579;28;20121;-93
2022/05/20 03:10:14;;;;;;;17.77;13.23;;;13.60;99.90;;;;;;5039627;28;20042;-93
2022/05/20 03:12:39;;;;;;;16.58;12.77;;;13.50;99.90;;;;;;5022814;28;20081;-94
2022/05/20 03:15:08;;;;;;;15.23;12.60;;;13.50;99.90;;;;;;5023241;28;20040;-93
2022/05/20 03:17:33;;;;;;;17.63;14.00;;;13.50;99.90;;;;;;5006064;28;20107;-94
2022/05/20 03:19:59;;;;;;;18.45;14.48;;;13.60;99.90;;;;;;5039633;28;20050;-95
2022/05/20 03:22:24;;;;;;;16.75;14.50;;;13.50;99.90;;;;;;5006539;28;20053;-93
2022/05/20 03:24:50;;;;;;;18.33;14.60;;;13.50;99.90;;;;;;5006698;28;20053;-95
2022/05/20 03:27:18;;;;;;;16.83;13.50;;;13.50;99.90;;;;;;5007651;28;20053;-94
2022/05/20 03:29:45;;;;;;;18.92;14.45;;;13.50;99.90;;;;;;5006339;28;20519;-94
2022/05/20 03:32:11;;;;;;;16.48;12.75;;;13.50;99.90;;;;;;5006244;28;20046;-93
2022/05/20 03:34:38;;;;;;;17.35;14.20;;;13.50;99.90;;;;;;5007023;28;20099;-96
2022/05/20 03:37:05;;;;;;;16.67;14.43;;;13.50;99.90;;;;;;5006707;28;20083;-94
2022/05/20 03:39:31;;;;;;;17.30;14.32;;;13.40;99.90;;;;;;5039273;28;20038;-92
2022/05/20 03:41:57;;;;;;;19.27;14.52;;;13.50;99.90;;;;;;4990193;28;20573;-94
2022/05/20 03:44:23;;;;;;;17.30;14.40;;;13.40;99.90;;;;;;5039529;28;20049;-93
2022/05/20 03:46:51;;;;;;;17.80;15.00;;;13.40;99.90;;;;;;5007149;28;20038;-93
2022/05/20 03:49:18;;;;;;;18.75;16.58;;;13.30;99.90;;;;;;5006508;28;20049;-93
2022/05/20 03:51:46;;;;;;;19.65;15.85;;;13.30;99.90;;;;;;5006030;28;20138;-94
2022/05/20 03:54:13;;;;;;;17.83;15.93;;;13.30;99.90;;;;;;5006736;28;20078;-93
2022/05/20 03:56:40;;;;;;;17.67;15.77;;;13.30;99.90;;;;;;4989783;28;20389;-93
2022/05/20 03:59:08;;;;;;;18.73;15.68;;;13.30;99.90;;;;;;5022787;28;20049;-95
2022/05/20 04:04:19;;;;;;;18.48;16.50;;;13.30;99.90;;;;;;5006398;28;20136;-94
2022/05/20 04:06:44;;;;;;;20.25;17.50;;;13.30;99.90;;;;;;5022193;28;20446;-94
2022/05/20 04:09:10;;;;;;;21.15;18.95;;;13.30;99.90;;;;;;5023237;28;20046;-93
2022/05/20 04:11:36;;;;;;;20.42;18.33;;;13.30;99.90;;;;;;5038932;28;20045;-93
2022/05/20 04:14:02;;;;;;;21.08;18.88;;;13.30;99.90;;;;;;5007424;28;20050;-95
2022/05/20 04:16:27;;;;;;;21.73;19.27;;;13.30;99.90;;;;;;5005975;28;20410;-94
2022/05/20 04:18:53;;;;;;;21.08;17.88;;;13.40;99.90;;;;;;5039395;28;20045;-94
2022/05/20 04:21:19;;;;;;;22.05;18.50;;;13.50;99.90;;;;;;5022814;28;20095;-94
2022/05/20 04:23:45;;;;;;;22.17;19.80;;;13.50;99.90;;;;;;5006133;28;20144;-93
2022/05/20 04:26:11;;;;;;;21.40;19.08;;;13.50;99.90;;;;;;5022307;28;20061;-94
2022/05/20 04:28:37;;;;;;;20.50;17.92;;;13.50;99.90;;;;;;5038103;28;20092;-93
2022/05/20 04:31:05;;;;;;;22.50;18.20;;;13.50;99.90;;;;;;4990274;28;20459;-94
2022/05/20 04:33:31;;;;;;;20.88;18.63;;;13.50;99.90;;;;;;5007691;28;20046;-95
2022/05/20 04:35:57;;;;;;;20.90;18.42;;;13.50;99.90;;;;;;5025505;28;20512;-96
2022/05/20 04:38:22;;;;;;;20.20;17.92;;;13.50;99.90;;;;;;5025691;28;20053;-94
2022/05/20 04:46:56;;;;;;;19.30;17.35;;;13.40;99.90;;;;;;5025311;28;20048;-93
2022/05/20 04:49:09;;;;;;;20.00;17.73;;;13.40;99.90;;;;;;5010802;28;20046;-93
2022/05/20 04:51:36;;;;;;;20.90;18.27;;;13.30;99.90;;;;;;4992725;28;20049;-93
2022/05/20 04:56:45;;;;;;;20.38;18.25;;;13.30;99.90;;;;;;5008752;28;20046;-93
2022/05/20 04:59:12;;;;;;;20.33;18.23;;;13.40;99.90;;;;;;5025350;28;20054;-94
2022/05/20 05:01:37;;;;;;;19.88;17.75;;;13.40;99.90;;;;;;4991651;28;20038;-94
2022/05/20 05:04:03;;;;;;;19.38;17.42;;;13.50;99.90;;;;;;5025660;28;20094;-93
2022/05/20 05:06:29;;;;;;;20.27;17.42;;;13.60;99.90;;;;;;5009023;28;20042;-95
2022/05/20 05:08:54;;;;;;;21.38;19.23;;;13.60;99.90;;;;;;5041201;28;20056;-94
2022/05/20 05:11:20;;;;;;;20.90;18.67;;;13.70;99.90;;;;;;5008613;28;20470;-94
2022/05/20 05:13:46;;;;;;;20.23;18.13;;;13.70;99.90;;;;;;5009455;28;20120;-92
2022/05/20 05:16:12;;;;;;;20.50;18.40;;;13.80;99.90;;;;;;5042090;28;20095;-92
2022/05/20 05:18:38;;;;;;;20.58;18.48;;;13.80;99.90;;;;;;5007999;28;20041;-95
2022/05/20 05:21:04;;;;;;;20.23;18.13;;;14.00;99.90;;;;;;5025278;28;20497;-95
2022/05/20 05:23:30;;;;;;;20.17;18.08;;;13.90;99.90;;;;;;5008538;28;20045;-94
2022/05/20 05:25:56;;;;;;;19.35;17.35;;;14.00;99.90;;;;;;5041163;28;20960;-93
2022/05/20 05:28:22;;;;;;;18.30;16.40;;;14.00;99.90;;;;;;4975778;28;20042;-93
2022/05/20 05:30:50;;;;;;;19.38;16.60;;;14.10;99.90;;;;;;5041317;28;20049;-95
2022/05/20 05:33:17;;;;;;;18.15;14.95;;;14.10;99.90;;;;;;5007826;28;20046;-92
2022/05/20 05:35:43;;;;;;;18.80;16.63;;;14.20;99.90;;;;;;5009400;28;20085;-93
2022/05/20 05:38:09;;;;;;;19.67;16.50;;;14.30;99.90;;;;;;5008406;28;20082;-93
2022/05/20 05:40:36;;;;;;;17.73;15.88;;;14.40;99.90;;;;;;5024791;28;20042;-92
2022/05/20 05:43:02;;;;;;;18.67;15.85;;;14.40;99.90;;;;;;5008655;28;20042;-92
2022/05/20 05:45:30;;;;;;;16.50;14.75;;;14.50;99.90;;;;;;5009768;28;20050;-93
2022/05/20 05:48:01;;;;;;;17.73;15.68;;;14.70;99.90;;;;;;5009888;28;20104;-94
2022/05/20 05:50:28;;;;;;;16.95;14.82;;;14.70;99.90;;;;;;4993264;28;20053;-92
2022/05/20 05:53:00;;;;;;;16.20;14.52;;;14.70;99.90;;;;;;5009005;28;20053;-92
2022/05/20 05:55:27;;;;;;;17.05;14.82;;;14.70;99.90;;;;;;5010237;28;20049;-94
2022/05/20 05:57:53;;;;;;;16.63;13.80;;;14.80;99.90;;;;;;5009429;28;20042;-94
2022/05/20 06:00:21;;;;;;;16.70;14.13;;;14.90;99.90;;;;;;5047317;28;20050;-93
2022/05/20 06:02:47;;;;;;;16.48;13.73;;;15.00;99.90;;;;;;5010329;28;20136;-92
2022/05/20 06:05:13;;;;;;;16.27;13.57;;;15.10;99.90;;;;;;5043928;28;20486;-92
2022/05/20 06:07:39;;;;;;;15.77;14.07;;;15.20;99.90;;;;;;5009527;28;20081;-93
2022/05/20 06:10:05;;;;;;;17.58;14.25;;;15.20;99.90;;;;;;4993461;28;20338;-93
2022/05/20 06:12:31;;;;;;;17.60;14.07;;;15.30;99.90;;;;;;5010124;28;20054;-92
2022/05/20 06:14:57;;;;;;;17.23;14.30;;;15.40;99.90;;;;;;5026151;28;20038;-93
2022/05/20 06:17:23;;;;;;;16.95;14.15;;;15.40;99.90;;;;;;5026111;28;20139;-93
2022/05/20 06:19:49;;;;;;;16.55;14.48;;;15.60;99.90;;;;;;5009496;28;20054;-93
2022/05/20 06:22:14;;;;;;;14.75;12.23;;;15.60;99.90;;;;;;5025004;28;20053;-91
2022/05/20 06:24:40;;;;;;;17.75;14.18;;;15.70;99.90;;;;;;5009341;28;20042;-92
2022/05/20 06:27:05;;;;;;;16.17;13.35;;;15.70;99.90;;;;;;5008723;28;20053;-93
2022/05/20 06:29:31;;;;;;;15.80;12.80;;;15.70;99.90;;;;;;5027269;28;20504;-93
2022/05/20 06:31:57;;;;;;;17.13;13.30;;;15.70;99.90;;;;;;5009118;28;20070;-92
2022/05/20 06:34:23;;;;;;;15.52;12.77;;;15.60;99.90;;;;;;5009339;28;20087;-93
2022/05/20 06:39:51;;;;;;;15.07;13.02;;;15.60;99.90;;;;;;5014602;28;20042;-93
2022/05/20 06:42:19;;;;;;;16.45;13.55;;;15.50;99.90;;;;;;4996689;28;20046;-93
2022/05/20 06:44:45;;;;;;;17.15;13.93;;;15.50;99.90;;;;;;5013364;28;20098;-93
2022/05/20 06:47:12;;;;;;;15.95;13.15;;;15.50;99.90;;;;;;5013264;28;20056;-93
2022/05/20 06:49:37;;;;;;;14.20;11.75;;;15.70;99.90;;;;;;5012592;28;20095;-92
2022/05/20 06:52:03;;;;;;;15.68;11.90;;;15.70;99.90;;;;;;5013663;28;20038;-94
2022/05/20 06:54:29;;;;;;;14.55;11.48;;;15.90;99.90;;;;;;5013182;28;20042;-89
2022/05/20 06:56:55;;;;;;;13.65;10.45;;;16.10;99.90;;;;;;5010152;28;20401;-91
2022/05/20 06:59:21;;;;;;;15.52;11.40;;;16.30;99.90;;;;;;4994589;28;20406;-92
2022/05/20 07:01:46;;;;;;;14.63;10.40;;;16.40;99.90;;;;;;5009486;28;20054;-94
2022/05/20 07:04:12;;;;;;;13.18;9.73;;;16.50;99.90;;;;;;5012577;28;20038;-90
2022/05/20 07:06:38;;;;;;;12.30;9.77;;;16.50;99.90;;;;;;5008351;28;20050;-92
2022/05/20 07:09:05;;;;;;;12.57;9.40;;;16.50;99.90;;;;;;5008551;28;20071;-90
2022/05/20 07:11:31;;;;;;;12.60;9.30;;;16.60;99.90;;;;;;4991042;28;20053;-94
2022/05/20 07:13:58;;;;;;;13.32;8.25;;;16.60;99.90;;;;;;5008496;28;20042;-90
2022/05/20 07:16:26;;;;;;;12.85;9.27;;;16.50;99.90;;;;;;4992739;28;20550;-90
2022/05/20 07:18:52;;;;;;;14.40;10.25;;;16.50;99.90;;;;;;5007159;28;20106;-90
2022/05/20 07:21:18;;;;;;;13.25;10.35;;;16.50;99.90;;;;;;4991280;28;20059;-91
2022/05/20 07:23:44;;;;;;;13.10;10.23;;;16.50;99.90;;;;;;5007592;28;20137;-91
2022/05/20 07:26:10;;;;;;;12.18;10.80;;;16.60;99.90;;;;;;5008185;28;20157;-92
2022/05/20 07:28:36;;;;;;;13.93;9.70;;;16.60;99.90;;;;;;4991284;28;20053;-92
2022/05/20 07:31:02;;;;;;;11.38;9.32;;;16.60;99.90;;;;;;5007808;28;20435;-91
2022/05/20 07:33:28;;;;;;;11.95;9.60;;;16.60;99.90;;;;;;5008921;28;20042;-91
2022/05/20 07:35:55;;;;;;;11.73;8.32;;;16.60;99.90;;;;;;5007743;28;20049;-91
2022/05/20 07:38:22;;;;;;;12.60;8.80;;;16.60;99.90;;;;;;5007274;28;20034;-89
2022/05/20 07:40:50;;;;;;;12.48;8.25;;;16.60;99.90;;;;;;5007230;28;20073;-91
2022/05/20 07:43:16;;;;;;;13.73;8.10;;;16.70;99.90;;;;;;5006908;28;20069;-91
2022/05/20 07:45:42;;;;;;;11.85;7.82;;;16.70;99.90;;;;;;4990526;28;20053;-92
2022/05/20 07:48:08;;;;;;;10.50;6.72;;;16.70;99.90;;;;;;5006885;28;20486;-90
2022/05/20 07:50:42;;;;;;;10.90;7.80;;;16.80;99.90;;;;;;5006610;28;20094;-90
2022/05/20 07:53:20;;;;;;;12.35;7.78;;;16.80;99.90;;;;;;5006830;28;20081;-90
2022/05/20 07:55:53;;;;;;;13.80;8.80;;;16.90;99.90;;;;;;5006941;28;20129;-91
2022/05/20 07:58:23;;;;;;;11.95;8.02;;;16.90;99.90;;;;;;5008543;28;20098;-90
2022/05/20 08:00:49;;;;;;;12.00;8.60;;;17.00;99.90;;;;;;5006277;28;20050;-89
2022/05/20 08:04:52;;;;;;;11.90;9.05;;;17.00;99.90;;;;;;5006600;28;20046;-91
2022/05/20 08:06:03;;;;;;;10.50;8.05;;;17.10;99.90;;;;;;5006997;28;20403;-92
2022/05/20 08:08:29;;;;;;;11.57;8.18;;;17.20;99.90;;;;;;5006737;28;20042;-91
2022/05/20 08:10:55;;;;;;;11.68;9.45;;;17.30;99.90;;;;;;5009919;28;20077;-90
2022/05/20 08:13:21;;;;;;;12.20;9.98;;;17.40;99.90;;;;;;5010472;28;20038;-92
2022/05/20 08:15:49;;;;;;;12.32;9.60;;;17.50;99.90;;;;;;5011082;28;20042;-93
2022/05/20 08:18:17;;;;;;;12.95;9.35;;;17.50;99.90;;;;;;5011357;28;20101;-94
2022/05/20 08:20:43;;;;;;;11.93;8.60;;;17.60;99.90;;;;;;5013085;28;20122;-91
2022/05/20 08:23:09;;;;;;;11.90;10.10;;;17.70;99.90;;;;;;4980658;28;20046;-91
2022/05/20 08:25:36;;;;;;;12.05;8.75;;;17.80;99.90;;;;;;5010032;28;20101;-90
2022/05/20 08:28:03;;;;;;;13.20;10.80;;;17.80;99.90;;;;;;4994534;28;20049;-92
2022/05/20 08:30:29;;;;;;;11.95;10.15;;;17.90;99.90;;;;;;5028997;28;20063;-89
2022/05/20 08:32:54;;;;;;;13.60;9.98;;;17.80;99.90;;;;;;5046527;28;20494;-91
2022/05/20 08:35:24;;;;;;;11.82;10.05;;;17.80;99.90;;;;;;5013232;28;20091;-91
2022/05/20 08:37:49;;;;;;;11.40;9.15;;;17.80;99.90;;;;;;5013095;28;20065;-93
2022/05/20 08:40:23;;;;;;;13.00;9.27;;;17.80;99.90;;;;;;5013327;28;20038;-94
2022/05/20 08:42:51;;;;;;;11.93;8.73;;;17.80;99.90;;;;;;5014121;28;20079;-90
2022/05/20 08:45:19;;;;;;;11.70;9.43;;;17.80;99.90;;;;;;5019393;28;20041;-93
2022/05/20 08:47:47;;;;;;;11.57;9.30;;;17.90;99.90;;;;;;5000416;28;20042;-93
2022/05/20 08:50:18;;;;;;;13.32;9.40;;;17.90;99.90;;;;;;5018912;28;20096;-94
2022/05/20 08:52:44;;;;;;;13.30;9.55;;;18.00;99.90;;;;;;5015207;28;20097;-90
2022/05/20 08:55:11;;;;;;;11.50;9.65;;;18.00;99.90;;;;;;5018676;28;20362;-92
2022/05/20 08:57:38;;;;;;;11.50;8.55;;;18.10;99.90;;;;;;5019825;28;20038;-90
2022/05/20 09:00:10;;;;;;;12.57;9.35;;;18.20;99.90;;;;;;5022166;28;20093;-92
2022/05/20 09:02:36;;;;;;;10.63;8.88;;;18.20;99.90;;;;;;5021147;28;20045;-90
2022/05/20 09:05:13;;;;;;;10.45;9.23;;;18.30;99.90;;;;;;5023134;28;20046;-90
2022/05/20 09:07:57;;;;;;;13.05;10.30;;;18.40;99.90;;;;;;5003141;28;20060;-91
2022/05/20 09:10:35;;;;;;;12.45;9.60;;;18.40;99.90;;;;;;5025003;28;20045;-91
2022/05/20 09:16:31;;;;;;;11.70;9.07;;;18.40;99.90;;;;;;5023219;28;20049;-91
2022/05/20 09:19:23;;;;;;;11.43;8.35;;;18.50;99.90;;;;;;5022356;28;20050;-90
2022/05/20 09:22:05;;;;;;;11.40;9.45;;;18.50;99.90;;;;;;5005249;28;20034;-91
2022/05/20 09:24:40;;;;;;;11.48;9.23;;;18.50;99.90;;;;;;5005956;28;20034;-91
2022/05/20 09:27:12;;;;;;;10.27;8.27;;;18.50;99.90;;;;;;5022445;28;20054;-91
2022/05/20 09:30:01;;;;;;;10.35;7.97;;;18.50;99.90;;;;;;5021068;28;20045;-90
2022/05/20 09:32:38;;;;;;;13.02;9.00;;;18.60;99.90;;;;;;5005781;28;20094;-93
2022/05/20 09:35:20;;;;;;;11.02;7.78;;;18.60;99.90;;;;;;5022671;28;20049;-91
2022/05/20 09:37:48;;;;;;;11.40;9.40;;;18.70;99.90;;;;;;5021691;28;20038;-91
2022/05/20 09:40:33;;;;;;;12.10;8.60;;;18.70;99.90;;;;;;5003300;28;20038;-90
2022/05/20 09:43:21;;;;;;;11.90;8.50;;;18.80;99.90;;;;;;5020171;28;20056;-91
2022/05/20 09:45:49;;;;;;;13.98;9.40;;;18.90;99.90;;;;;;5021011;28;20049;-92
2022/05/20 09:48:32;;;;;;;13.15;10.30;;;18.90;99.90;;;;;;5001666;28;20046;-92
2022/05/20 09:51:32;;;;;;;12.90;10.10;;;18.90;99.90;;;;;;5018591;28;20053;-92
2022/05/20 09:54:13;;;;;;;10.27;8.57;;;18.90;99.90;;;;;;4998103;28;20042;-89
2022/05/20 09:56:44;;;;;;;11.45;9.32;;;19.00;99.90;;;;;;5012751;28;20050;-92
2022/05/20 09:59:15;;;;;;;11.88;9.27;;;19.00;99.90;;;;;;5012067;28;20042;-92
2022/05/20 10:01:52;;;;;;;12.07;9.30;;;19.00;99.90;;;;;;5010678;28;20050;-91
2022/05/20 10:04:24;;;;;;;9.25;7.32;;;19.00;99.90;;;;;;5009311;28;20114;-91
2022/05/20 10:06:56;;;;;;;9.05;6.70;;;19.00;99.90;;;;;;5007624;28;20667;-91
2022/05/20 10:09:29;;;;;;;8.25;5.47;;;19.10;99.90;;;;;;5008386;28;20072;-92
2022/05/20 10:12:23;;;;;;;9.85;6.80;;;19.00;99.90;;;;;;5006879;28;20528;-91
2022/05/20 10:15:13;;;;;;;10.52;8.25;;;19.10;99.90;;;;;;4990473;28;20379;-90
2022/05/20 10:18:05;;;;;;;10.38;8.68;;;19.10;99.90;;;;;;5005824;28;20057;-92
2022/05/20 10:20:40;;;;;;;10.57;8.68;;;19.10;99.90;;;;;;5006558;28;20401;-91
2022/05/20 10:23:15;;;;;;;10.88;8.13;;;19.20;99.90;;;;;;5007238;28;20053;-92
2022/05/20 10:26:14;;;;;;;11.27;9.00;;;19.30;99.90;;;;;;5006037;28;20052;-90
2022/05/20 10:34:39;;;;;;;9.65;8.10;;;19.60;99.90;;;;;;5007888;28;20054;-93
2022/05/20 10:37:42;;;;;;;10.38;7.47;;;19.70;99.90;;;;;;4990131;28;20053;-91
2022/05/20 10:40:34;;;;;;;9.73;7.18;;;19.70;99.90;;;;;;5007768;28;20474;-91
2022/05/20 10:43:03;;;;;;;11.73;7.68;;;19.70;99.90;;;;;;5008339;28;20077;-91
2022/05/20 10:49:17;;;;;;;9.95;7.70;;;19.80;99.90;;;;;;5006599;28;20083;-89
2022/05/20 10:52:09;;;;;;;9.45;6.85;;;19.80;99.90;;;;;;5007658;28;20046;-92
2022/05/20 10:54:52;;;;;;;12.55;8.25;;;19.80;99.90;;;;;;5008158;28;20038;-91
2022/05/20 10:57:23;;;;;;;13.20;11.75;;;19.90;99.90;;;;;;5007306;28;20042;-92
2022/05/20 11:00:01;;;;;;;12.88;11.57;;;19.90;99.90;;;;;;5006771;28;20121;-91
2022/05/20 11:02:45;;;;;;;11.70;10.30;;;20.00;99.90;;;;;;5040007;28;20057;-93
2022/05/20 11:05:36;;;;;;;12.73;9.38;;;20.10;99.90;;;;;;5007566;28;20038;-90
2022/05/20 11:08:23;;;;;;;9.35;6.97;;;20.20;99.90;;;;;;4991187;28;20357;-92
2022/05/20 11:11:22;;;;;;;8.02;4.50;;;20.10;99.90;;;;;;5008226;28;20472;-92
2022/05/20 11:14:28;;;;;;;8.85;5.82;;;20.10;99.90;;;;;;5006975;28;20117;-90
2022/05/20 11:17:25;;;;;;;9.13;6.22;;;20.10;99.90;;;;;;4989852;28;20045;-91
2022/05/20 11:20:15;;;;;;;10.05;7.57;;;20.10;99.90;;;;;;5006456;28;20053;-91
2022/05/20 11:22:46;;;;;;;10.45;7.53;;;20.20;99.90;;;;;;4990485;28;20121;-90
2022/05/20 11:25:36;;;;;;;10.15;7.55;;;20.20;99.90;;;;;;4990469;28;20049;-91
2022/05/20 11:28:11;;;;;;;13.20;7.57;;;20.30;99.90;;;;;;5006340;28;20145;-92
2022/05/20 11:30:45;;;;;;;9.05;6.28;;;20.40;99.90;;;;;;5005955;28;20466;-91
2022/05/20 11:33:42;;;;;;;8.60;7.10;;;20.40;99.90;;;;;;5007944;28;20092;-94
2022/05/20 11:36:26;;;;;;;8.50;6.80;;;20.40;99.90;;;;;;4992461;28;20038;-90
2022/05/20 11:39:08;;;;;;;8.95;5.80;;;20.40;99.90;;;;;;4990047;28;20046;-92
2022/05/20 11:41:48;;;;;;;7.15;4.10;;;20.40;99.90;;;;;;5006508;28;20456;-91
2022/05/20 11:44:40;;;;;;;8.35;4.38;;;20.40;99.90;;;;;;5009232;28;20078;-93
2022/05/20 11:47:25;;;;;;;6.95;4.22;;;20.40;97.00;;;;;;5009696;28;20191;-93
2022/05/20 11:50:18;;;;;;;8.15;4.88;;;20.40;96.40;;;;;;5009936;28;20543;-92
2022/05/20 11:53:11;;;;;;;6.32;3.50;;;20.40;99.50;;;;;;5009179;28;20054;-93
2022/05/20 11:55:46;;;;;;;6.13;3.38;;;20.50;99.90;;;;;;4992191;28;20041;-90
2022/05/20 11:58:29;;;;;;;6.55;3.22;;;20.60;99.40;;;;;;5009612;28;20056;-90
2022/05/20 12:00:56;;;;;;;6.78;3.95;;;20.60;99.90;;;;;;4992643;28;20049;-92
2022/05/20 12:03:29;;;;;;;7.82;4.38;;;20.60;99.90;;;;;;5010433;28;20129;-89
2022/05/20 12:05:55;;;;;;;6.68;4.10;;;20.60;99.90;;;;;;5009636;28;20041;-91
2022/05/20 12:08:44;;;;;;;6.53;3.63;;;20.50;99.90;;;;;;5008837;28;20473;-93
2022/05/20 12:11:37;;;;;;;6.30;3.75;;;20.60;99.90;;;;;;5016403;28;20053;-94
2022/05/20 12:14:09;;;;;;;5.28;3.15;;;20.60;99.90;;;;;;5009881;28;20042;-91
2022/05/20 12:17:00;;;;;;;7.10;3.60;;;20.60;99.90;;;;;;5008482;28;20385;-90
2022/05/20 12:25:36;;;;;;;7.50;4.03;;;20.70;99.90;;;;;;4951958;28;20136;-90
2022/05/20 12:28:08;;;;;;;7.60;4.47;;;20.80;99.90;;;;;;4967678;28;20058;-90
2022/05/20 12:30:43;;;;;;;8.60;4.93;;;20.80;99.90;;;;;;4967651;28;20108;-89
2022/05/20 12:33:28;;;;;;;10.18;7.43;;;20.80;99.90;;;;;;4968404;28;20059;-89
2022/05/20 12:36:28;;;;;;;10.15;7.95;;;21.00;99.90;;;;;;4968055;28;20111;-91
2022/05/20 12:39:09;;;;;;;9.87;7.10;;;21.00;99.90;;;;;;4951747;28;20057;-89
2022/05/20 12:41:55;;;;;;;9.85;6.60;;;21.10;99.90;;;;;;4935747;28;20062;-89
2022/05/20 12:44:20;;;;;;;9.90;5.72;;;21.00;99.90;;;;;;4945082;28;20113;-90
2022/05/20 12:46:57;;;;;;;8.57;5.95;;;21.10;99.90;;;;;;4951976;28;20431;-93
2022/05/20 12:49:32;;;;;;;9.80;6.95;;;21.10;99.90;;;;;;4968749;28;20042;-90
2022/05/20 12:52:09;;;;;;;9.13;6.57;;;21.10;99.90;;;;;;4951864;28;20090;-92
2022/05/20 12:54:40;;;;;;;9.23;7.50;;;21.00;99.90;;;;;;5006912;28;20053;-90
2022/05/20 12:57:14;;;;;;;11.45;8.25;;;21.00;99.90;;;;;;5008296;28;20383;-90
2022/05/20 12:59:39;;;;;;;10.20;8.82;;;21.00;99.90;;;;;;4991069;28;20053;-93
2022/05/20 13:02:11;;;;;;;10.68;8.30;;;21.00;99.90;;;;;;4991555;28;20410;-89
2022/05/20 13:04:43;;;;;;;11.20;9.90;;;20.90;99.90;;;;;;4991328;28;20046;-89
2022/05/20 13:07:16;;;;;;;11.50;9.45;;;20.90;99.90;;;;;;5007788;28;20056;-90
2022/05/20 13:09:43;;;;;;;14.07;12.68;;;20.80;99.90;;;;;;5008636;28;20038;-92
2022/05/20 13:12:18;;;;;;;13.45;12.05;;;20.70;99.90;;;;;;5008689;28;20421;-89
2022/05/20 13:14:46;;;;;;;14.00;12.60;;;20.60;99.90;;;;;;5009000;28;20046;-90
2022/05/20 13:17:12;;;;;;;15.02;13.43;;;20.40;99.90;;;;;;5008012;28;20158;-90
2022/05/20 13:19:53;;;;;;;15.65;14.05;;;20.30;99.90;;;;;;5009490;28;20049;-88
2022/05/20 13:22:23;;;;;;;15.15;13.65;;;20.20;99.90;;;;;;5009352;28;20034;-93
2022/05/20 13:24:58;;;;;;;17.02;15.23;;;20.10;99.90;;;;;;4990712;28;20085;-89
2022/05/20 13:27:24;;;;;;;15.15;13.65;;;20.00;99.90;;;;;;5007026;28;20089;-90
2022/05/20 13:29:54;;;;;;;15.48;13.88;;;19.90;99.90;;;;;;5008259;28;20139;-90
2022/05/20 13:32:29;;;;;;;15.13;13.55;;;19.80;99.90;;;;;;5007254;28;20048;-93